createdAt,value
2023-07-30T00:02:01.922Z,18.85
2023-07-30T00:04:33.239Z,18.85
2023-07-30T00:07:03.954Z,18.83
2023-07-30T00:09:34.788Z,18.81
2023-07-30T00:12:05.634Z,18.77
2023-07-30T00:14:36.281Z,18.77
2023-07-30T00:17:07.088Z,18.75
2023-07-30T00:19:37.873Z,18.75
2023-07-30T00:22:08.652Z,18.73
2023-07-30T00:24:39.405Z,18.72
2023-07-30T00:27:10.184Z,18.70
2023-07-30T00:29:40.749Z,18.70
2023-07-30T00:32:12.697Z,18.69
2023-07-30T00:34:43.568Z,18.66
2023-07-30T00:37:15.745Z,18.62
2023-07-30T00:39:46.430Z,18.56
2023-07-30T00:42:17.142Z,18.53
2023-07-30T00:44:48.200Z,18.52
2023-07-30T00:47:19.076Z,18.49
2023-07-30T00:49:50.707Z,18.47
2023-07-30T00:52:23.702Z,18.47
2023-07-30T00:54:54.673Z,18.47
2023-07-30T00:57:25.857Z,18.47
2023-07-30T00:59:57.026Z,18.47
2023-07-30T01:02:28.939Z,18.46
2023-07-30T01:05:02.128Z,18.46
2023-07-30T01:07:32.880Z,18.50
2023-07-30T01:10:04.107Z,18.52
2023-07-30T01:12:36.769Z,18.53
2023-07-30T01:15:09.482Z,18.52
2023-07-30T01:17:40.082Z,18.51
2023-07-30T01:20:12.822Z,18.51
2023-07-30T01:22:43.247Z,18.54
2023-07-30T01:25:13.933Z,18.56
2023-07-30T01:27:46.688Z,18.60
2023-07-30T01:30:19.839Z,18.63
2023-07-30T01:32:51.792Z,18.61
2023-07-30T01:35:23.772Z,18.57
2023-07-30T01:37:54.724Z,18.58
2023-07-30T01:40:25.778Z,18.56
2023-07-30T01:42:56.314Z,18.53
2023-07-30T01:45:27.251Z,18.50
2023-07-30T01:47:57.920Z,18.50
2023-07-30T01:50:28.793Z,18.48
2023-07-30T01:53:00.177Z,18.47
2023-07-30T01:55:33.679Z,18.47
2023-07-30T01:58:04.205Z,18.44
2023-07-30T02:00:35.539Z,18.45
2023-07-30T02:03:08.874Z,18.48
2023-07-30T02:05:40.110Z,18.48
2023-07-30T02:08:10.734Z,18.49
2023-07-30T02:10:41.313Z,18.48
2023-07-30T02:13:11.809Z,18.47
2023-07-30T02:15:44.406Z,18.45
2023-07-30T02:18:14.848Z,18.44
2023-07-30T02:20:45.621Z,18.45
2023-07-30T02:23:17.252Z,18.42
2023-07-30T02:25:47.926Z,18.43
2023-07-30T02:28:18.475Z,18.43
2023-07-30T02:30:49.649Z,18.43
2023-07-30T02:33:20.200Z,18.39
2023-07-30T02:35:50.971Z,18.39
2023-07-30T02:38:21.449Z,18.35
2023-07-30T02:40:52.131Z,18.29
2023-07-30T02:43:22.596Z,18.27
2023-07-30T02:45:53.518Z,18.26
2023-07-30T02:48:23.922Z,18.23
2023-07-30T02:50:55.029Z,18.21
2023-07-30T02:53:25.478Z,18.21
2023-07-30T02:55:56.463Z,18.24
2023-07-30T02:58:26.974Z,18.24
2023-07-30T03:00:57.879Z,18.24
2023-07-30T03:03:28.361Z,18.22
2023-07-30T03:06:00.735Z,18.20
2023-07-30T03:08:34.056Z,18.19
2023-07-30T03:11:05.273Z,18.21
2023-07-30T03:13:35.760Z,18.19
2023-07-30T03:16:07.318Z,18.15
2023-07-30T03:18:37.821Z,18.11
2023-07-30T03:21:08.471Z,18.10
2023-07-30T03:23:38.860Z,18.09
2023-07-30T03:26:09.830Z,18.09
2023-07-30T03:28:40.925Z,18.08
2023-07-30T03:31:12.330Z,18.09
2023-07-30T03:33:45.151Z,18.10
2023-07-30T03:36:16.279Z,18.10
2023-07-30T03:38:47.049Z,18.05
2023-07-30T03:41:18.058Z,18.00
2023-07-30T03:43:48.571Z,17.97
2023-07-30T03:46:19.687Z,17.98
2023-07-30T03:48:51.098Z,18.02
2023-07-30T03:51:22.713Z,18.04
2023-07-30T03:53:54.865Z,18.04
2023-07-30T03:56:26.482Z,18.04
2023-07-30T03:59:01.126Z,18.05
2023-07-30T04:01:35.385Z,18.07
2023-07-30T04:04:06.539Z,18.10
2023-07-30T04:06:37.655Z,18.15
2023-07-30T04:09:09.439Z,18.20
2023-07-30T04:11:40.605Z,18.18
2023-07-30T04:14:11.142Z,18.16
2023-07-30T04:16:42.044Z,18.17
2023-07-30T04:19:12.503Z,18.20
2023-07-30T04:21:43.287Z,18.18
2023-07-30T04:24:13.815Z,18.14
2023-07-30T04:26:44.928Z,18.15
2023-07-30T04:29:17.995Z,18.16
2023-07-30T04:31:49.383Z,18.16
2023-07-30T04:34:19.872Z,18.16
2023-07-30T04:36:50.931Z,18.17
2023-07-30T04:39:21.850Z,18.18
2023-07-30T04:41:52.358Z,18.21
2023-07-30T04:44:22.828Z,18.30
2023-07-30T04:46:54.170Z,18.38
2023-07-30T04:49:24.552Z,18.45
2023-07-30T04:51:57.328Z,18.51
2023-07-30T04:54:28.366Z,18.53
2023-07-30T04:57:00.757Z,18.57
2023-07-30T04:59:31.360Z,18.61
2023-07-30T05:02:02.227Z,18.64
2023-07-30T05:04:33.125Z,18.65
2023-07-30T05:07:03.821Z,18.67
2023-07-30T05:09:34.147Z,18.68
2023-07-30T05:12:05.215Z,18.72
2023-07-30T05:14:35.636Z,18.75
2023-07-30T05:17:06.995Z,18.80
2023-07-30T05:19:37.421Z,18.87
2023-07-30T05:22:09.186Z,18.95
2023-07-30T05:24:39.540Z,19.03
2023-07-30T05:27:10.366Z,19.06
2023-07-30T05:29:40.777Z,19.06
2023-07-30T05:32:11.895Z,19.05
2023-07-30T05:34:42.238Z,19.09
2023-07-30T05:37:14.461Z,19.15
2023-07-30T05:39:47.449Z,19.16
2023-07-30T05:42:18.068Z,19.24
2023-07-30T05:44:48.580Z,19.32
2023-07-30T05:47:19.438Z,19.32
2023-07-30T05:49:49.774Z,19.35
2023-07-30T05:52:22.346Z,19.46
2023-07-30T05:54:52.828Z,19.51
2023-07-30T05:57:23.729Z,19.62
2023-07-30T05:59:54.413Z,19.63
2023-07-30T06:02:25.168Z,19.65
2023-07-30T06:04:55.924Z,19.71
2023-07-30T06:07:27.073Z,19.76
2023-07-30T06:09:57.518Z,19.78
2023-07-30T06:12:28.124Z,19.84
2023-07-30T06:15:01.636Z,20.02
2023-07-30T06:17:34.857Z,20.07
2023-07-30T06:20:05.403Z,20.13
2023-07-30T06:22:36.139Z,20.23
2023-07-30T06:25:07.566Z,20.32
2023-07-30T06:27:38.585Z,20.32
2023-07-30T06:30:09.831Z,20.33
2023-07-30T06:32:40.947Z,20.24
2023-07-30T06:35:11.784Z,20.20
2023-07-30T06:37:42.812Z,20.18
2023-07-30T06:40:13.324Z,20.18
2023-07-30T06:42:43.850Z,20.17
2023-07-30T06:45:14.265Z,20.20
2023-07-30T06:47:45.242Z,20.23
2023-07-30T06:50:15.722Z,20.32
2023-07-30T06:52:46.510Z,20.40
2023-07-30T06:55:16.936Z,20.39
2023-07-30T06:57:47.880Z,20.43
2023-07-30T07:00:22.816Z,20.42
2023-07-30T07:02:54.165Z,20.40
2023-07-30T07:05:25.054Z,20.38
2023-07-30T07:07:55.901Z,20.49
2023-07-30T07:10:26.342Z,20.63
2023-07-30T07:12:57.216Z,20.84
2023-07-30T07:15:27.732Z,20.99
2023-07-30T07:18:00.346Z,21.11
2023-07-30T07:20:33.362Z,21.16
2023-07-30T07:23:03.940Z,21.22
2023-07-30T07:25:34.965Z,21.25
2023-07-30T07:28:06.238Z,21.26
2023-07-30T07:30:38.029Z,21.35
2023-07-30T07:33:12.950Z,21.51
2023-07-30T07:35:43.476Z,21.61
2023-07-30T07:38:14.230Z,21.57
2023-07-30T07:40:44.616Z,21.61
2023-07-30T07:43:15.133Z,21.70
2023-07-30T07:45:45.872Z,21.73
2023-07-30T07:48:16.395Z,21.70
2023-07-30T07:50:47.289Z,21.67
2023-07-30T07:53:17.706Z,21.60
2023-07-30T07:55:48.224Z,21.52
2023-07-30T07:58:18.833Z,21.47
2023-07-30T08:00:49.489Z,21.43
2023-07-30T08:03:21.247Z,21.47
2023-07-30T08:05:52.190Z,21.63
2023-07-30T08:08:24.088Z,21.80
2023-07-30T08:10:55.941Z,21.93
2023-07-30T08:13:26.517Z,22.03
2023-07-30T08:15:57.215Z,22.14
2023-07-30T08:18:28.207Z,22.23
2023-07-30T08:21:01.958Z,22.33
2023-07-30T08:23:35.328Z,22.40
2023-07-30T08:26:05.768Z,22.49
2023-07-30T08:28:36.258Z,22.58
2023-07-30T08:31:07.393Z,22.60
2023-07-30T08:33:38.160Z,22.63
2023-07-30T08:36:08.708Z,22.72
2023-07-30T08:38:39.638Z,22.85
2023-07-30T08:41:10.468Z,22.92
2023-07-30T08:43:41.291Z,22.81
2023-07-30T08:46:11.751Z,22.76
2023-07-30T08:48:45.343Z,22.81
2023-07-30T08:51:18.120Z,22.89
2023-07-30T08:53:49.385Z,22.85
2023-07-30T08:56:20.324Z,22.87
2023-07-30T08:58:58.834Z,22.94
2023-07-30T09:01:34.089Z,23.09
2023-07-30T09:04:05.243Z,23.27
2023-07-30T09:06:36.073Z,23.44
2023-07-30T09:09:06.849Z,23.62
2023-07-30T09:11:37.906Z,23.68
2023-07-30T09:14:09.168Z,23.80
2023-07-30T09:16:39.752Z,23.90
2023-07-30T09:19:10.301Z,24.12
2023-07-30T09:21:42.164Z,24.27
2023-07-30T09:24:12.925Z,24.40
2023-07-30T09:26:44.943Z,24.46
2023-07-30T09:29:15.897Z,24.43
2023-07-30T09:31:50.536Z,24.47
2023-07-30T09:34:21.470Z,24.54
2023-07-30T09:36:53.292Z,24.64
2023-07-30T09:39:24.549Z,24.93
2023-07-30T09:41:55.726Z,25.24
2023-07-30T09:44:26.217Z,25.52
2023-07-30T09:46:56.809Z,25.81
2023-07-30T09:49:27.544Z,26.02
2023-07-30T09:51:59.249Z,26.14
2023-07-30T09:54:31.761Z,26.10
2023-07-30T09:57:02.314Z,26.23
2023-07-30T09:59:34.865Z,26.48
2023-07-30T10:02:05.589Z,26.44
2023-07-30T10:04:37.796Z,26.38
2023-07-30T10:07:10.872Z,26.46
2023-07-30T10:09:44.813Z,26.66
2023-07-30T10:12:16.569Z,26.98
2023-07-30T10:14:47.660Z,27.38
2023-07-30T10:17:19.745Z,27.56
2023-07-30T10:19:51.353Z,27.67
2023-07-30T10:22:25.498Z,27.65
2023-07-30T10:25:00.257Z,27.67
2023-07-30T10:27:39.111Z,27.93
2023-07-30T10:30:12.260Z,28.32
2023-07-30T10:32:43.716Z,28.61
2023-07-30T10:35:34.709Z,28.59
2023-07-30T10:38:14.413Z,28.40
2023-07-30T10:41:01.565Z,28.11
2023-07-30T10:43:36.653Z,27.65
2023-07-30T10:46:07.592Z,27.10
2023-07-30T10:48:38.561Z,26.65
2023-07-30T10:51:10.595Z,26.51
2023-07-30T10:53:41.855Z,26.54
2023-07-30T10:56:12.695Z,26.77
2023-07-30T10:58:44.948Z,27.05
2023-07-30T11:01:15.336Z,27.31
2023-07-30T11:03:45.862Z,27.62
2023-07-30T11:06:16.406Z,27.90
2023-07-30T11:08:46.842Z,28.07
2023-07-30T11:11:17.679Z,28.25
2023-07-30T11:13:49.153Z,28.46
2023-07-30T11:16:19.833Z,28.42
2023-07-30T11:18:53.194Z,28.31
2023-07-30T11:21:32.018Z,28.35
2023-07-30T11:24:02.745Z,28.33
2023-07-30T11:26:33.361Z,28.34
2023-07-30T11:29:16.028Z,28.50
2023-07-30T11:31:47.713Z,28.67
2023-07-30T11:34:19.679Z,28.63
2023-07-30T11:36:50.510Z,28.77
2023-07-30T11:39:21.409Z,29.05
2023-07-30T11:41:52.276Z,29.31
2023-07-30T11:44:37.359Z,29.58
2023-07-30T11:47:08.213Z,29.86
2023-07-30T11:49:38.979Z,29.83
2023-07-30T11:52:10.583Z,29.63
2023-07-30T11:54:45.978Z,29.44
2023-07-30T11:57:16.681Z,29.26
2023-07-30T11:59:47.279Z,29.03
2023-07-30T12:02:20.706Z,28.59
2023-07-30T12:05:02.047Z,28.13
2023-07-30T12:07:44.174Z,27.83
2023-07-30T12:10:17.524Z,27.77
2023-07-30T12:12:53.824Z,27.91
2023-07-30T12:15:24.452Z,27.94
2023-07-30T12:17:55.010Z,27.82
2023-07-30T12:20:29.432Z,27.68
2023-07-30T12:23:01.389Z,27.42
2023-07-30T12:25:31.969Z,27.13
2023-07-30T12:28:03.260Z,26.98
2023-07-30T12:30:37.009Z,26.84
2023-07-30T12:33:08.272Z,26.65
2023-07-30T12:35:39.299Z,26.64
2023-07-30T12:38:12.118Z,26.83
2023-07-30T12:40:42.930Z,27.06
2023-07-30T12:43:14.409Z,27.28
2023-07-30T12:45:45.061Z,27.52
2023-07-30T12:48:15.921Z,27.77
2023-07-30T12:50:46.599Z,27.87
2023-07-30T12:53:17.227Z,27.89
2023-07-30T12:55:48.219Z,27.88
2023-07-30T12:58:18.751Z,27.87
2023-07-30T13:00:49.368Z,27.97
2023-07-30T13:03:20.005Z,27.99
2023-07-30T13:05:51.621Z,27.96
2023-07-30T13:08:22.406Z,27.96
2023-07-30T13:10:53.268Z,27.98
2023-07-30T13:13:24.961Z,28.00
2023-07-30T13:15:59.297Z,28.07
2023-07-30T13:18:30.303Z,28.04
2023-07-30T13:21:01.134Z,28.09
2023-07-30T13:23:33.186Z,28.16
2023-07-30T13:26:04.377Z,28.17
2023-07-30T13:28:34.913Z,28.22
2023-07-30T13:31:06.197Z,28.24
2023-07-30T13:33:36.945Z,28.22
2023-07-30T13:36:08.176Z,28.21
2023-07-30T13:38:40.057Z,28.21
2023-07-30T13:41:11.540Z,28.19
2023-07-30T13:43:41.903Z,28.16
2023-07-30T13:46:12.446Z,28.07
2023-07-30T13:48:42.971Z,28.00
2023-07-30T13:51:14.045Z,27.91
2023-07-30T13:53:44.437Z,27.84
2023-07-30T13:56:15.304Z,27.70
2023-07-30T13:58:46.098Z,27.54
2023-07-30T14:01:17.380Z,27.42
2023-07-30T14:03:47.812Z,27.23
2023-07-30T14:06:18.485Z,27.05
2023-07-30T14:08:49.103Z,26.89
2023-07-30T14:11:19.861Z,26.77
2023-07-30T14:13:51.213Z,26.69
2023-07-30T14:16:25.270Z,26.73
2023-07-30T14:18:55.766Z,26.84
2023-07-30T14:21:32.190Z,26.90
2023-07-30T14:24:02.681Z,26.92
2023-07-30T14:26:33.471Z,26.92
2023-07-30T14:29:03.951Z,26.88
2023-07-30T14:31:35.185Z,26.85
2023-07-30T14:34:07.026Z,26.82
2023-07-30T14:36:38.010Z,26.80
2023-07-30T14:39:08.445Z,26.75
2023-07-30T14:41:40.417Z,26.66
2023-07-30T14:44:11.258Z,26.60
2023-07-30T14:46:42.732Z,26.64
2023-07-30T14:49:13.233Z,26.76
2023-07-30T14:51:44.012Z,26.86
2023-07-30T14:54:14.605Z,26.93
2023-07-30T14:56:45.713Z,26.94
2023-07-30T14:59:16.680Z,26.91
2023-07-30T15:01:47.568Z,26.83
2023-07-30T15:04:18.100Z,26.72
2023-07-30T15:06:49.192Z,26.65
2023-07-30T15:09:19.704Z,26.53
2023-07-30T15:11:51.169Z,26.43
2023-07-30T15:14:21.732Z,26.28
2023-07-30T15:16:52.933Z,26.13
2023-07-30T15:19:23.371Z,26.03
2023-07-30T15:21:54.260Z,25.94
2023-07-30T15:24:24.734Z,25.90
2023-07-30T15:26:58.153Z,25.88
2023-07-30T15:29:28.610Z,25.72
2023-07-30T15:32:03.894Z,25.54
2023-07-30T15:34:37.501Z,25.47
2023-07-30T15:37:08.413Z,25.48
2023-07-30T15:39:38.824Z,25.51
2023-07-30T15:42:10.265Z,25.53
2023-07-30T15:44:40.631Z,25.59
2023-07-30T15:47:14.144Z,25.60
2023-07-30T15:49:44.967Z,25.54
2023-07-30T15:52:15.753Z,25.49
2023-07-30T15:54:46.173Z,25.49
2023-07-30T15:57:18.394Z,25.48
2023-07-30T15:59:51.982Z,25.43
2023-07-30T16:02:22.675Z,25.39
2023-07-30T16:04:53.819Z,25.27
2023-07-30T16:07:24.935Z,25.16
2023-07-30T16:09:57.905Z,25.09
2023-07-30T16:12:28.628Z,25.03
2023-07-30T16:15:03.086Z,24.96
2023-07-30T16:17:34.827Z,24.90
2023-07-30T16:20:07.077Z,24.84
2023-07-30T16:22:38.620Z,24.77
2023-07-30T16:25:09.789Z,24.75
2023-07-30T16:27:41.027Z,24.75
2023-07-30T16:30:12.101Z,24.75
2023-07-30T16:32:43.234Z,24.76
2023-07-30T16:35:13.684Z,24.75
2023-07-30T16:37:46.061Z,24.76
2023-07-30T16:40:17.204Z,24.75
2023-07-30T16:42:48.332Z,24.76
2023-07-30T16:45:18.729Z,24.73
2023-07-30T16:47:49.192Z,24.71
2023-07-30T16:50:19.709Z,24.68
2023-07-30T16:52:50.192Z,24.65
2023-07-30T16:55:20.748Z,24.61
2023-07-30T16:57:51.244Z,24.56
2023-07-30T17:00:21.848Z,24.54
2023-07-30T17:02:53.373Z,24.51
2023-07-30T17:05:23.960Z,24.48
2023-07-30T17:07:54.979Z,24.44
2023-07-30T17:10:25.396Z,24.37
2023-07-30T17:12:56.456Z,24.30
2023-07-30T17:15:27.280Z,24.24
2023-07-30T17:17:58.154Z,24.18
2023-07-30T17:20:29.071Z,24.10
2023-07-30T17:23:02.383Z,24.04
2023-07-30T17:25:35.033Z,23.98
2023-07-30T17:28:06.559Z,23.92
2023-07-30T17:30:37.100Z,23.86
2023-07-30T17:33:07.981Z,23.73
2023-07-30T17:35:38.524Z,23.60
2023-07-30T17:38:09.227Z,23.51
2023-07-30T17:40:39.757Z,23.45
2023-07-30T17:43:11.180Z,23.41
2023-07-30T17:45:41.768Z,23.37
2023-07-30T17:48:12.519Z,23.32
2023-07-30T17:50:43.334Z,23.25
2023-07-30T17:53:14.147Z,23.15
2023-07-30T17:55:45.242Z,23.09
2023-07-30T17:58:15.958Z,23.06
2023-07-30T18:00:49.153Z,23.02
2023-07-30T18:03:19.836Z,22.98
2023-07-30T18:05:50.751Z,22.93
2023-07-30T18:08:21.478Z,22.87
2023-07-30T18:10:51.954Z,22.80
2023-07-30T18:13:22.860Z,22.76
2023-07-30T18:15:53.519Z,22.72
2023-07-30T18:18:24.290Z,22.68
2023-07-30T18:20:54.801Z,22.64
2023-07-30T18:23:25.880Z,22.60
2023-07-30T18:25:56.552Z,22.56
2023-07-30T18:28:27.468Z,22.50
2023-07-30T18:30:58.178Z,22.45
2023-07-30T18:33:29.294Z,22.40
2023-07-30T18:36:02.052Z,22.32
2023-07-30T18:38:35.493Z,22.23
2023-07-30T18:41:06.849Z,22.17
2023-07-30T18:43:40.296Z,22.13
2023-07-30T18:46:13.327Z,22.07
2023-07-30T18:48:44.327Z,22.02
2023-07-30T18:51:15.029Z,21.97
2023-07-30T18:53:45.615Z,21.91
2023-07-30T18:56:16.564Z,21.93
2023-07-30T18:58:47.350Z,21.93
2023-07-30T19:01:17.815Z,21.87
2023-07-30T19:03:49.103Z,21.89
2023-07-30T19:06:20.052Z,21.92
2023-07-30T19:08:50.761Z,21.90
2023-07-30T19:11:23.550Z,21.84
2023-07-30T19:13:55.664Z,21.77
2023-07-30T19:16:26.265Z,21.68
2023-07-30T19:22:27.411Z,21.47
2023-07-30T19:24:58.363Z,21.38
2023-07-30T19:27:29.457Z,21.30
2023-07-30T19:30:01.406Z,21.22
2023-07-30T19:32:32.279Z,21.13
2023-07-30T19:35:03.437Z,21.03
2023-07-30T19:37:35.397Z,20.86
2023-07-30T19:40:06.926Z,20.66
2023-07-30T19:42:38.425Z,20.49
2023-07-30T19:45:10.636Z,20.35
2023-07-30T19:47:41.590Z,20.20
2023-07-30T19:50:18.632Z,20.06
2023-07-30T19:52:52.708Z,19.94
2023-07-30T19:55:23.296Z,19.84
2023-07-30T19:57:59.151Z,19.75
2023-07-30T20:00:30.493Z,19.68
2023-07-30T20:03:01.654Z,19.65
2023-07-30T20:05:34.898Z,19.67
2023-07-30T20:08:06.505Z,19.68
2023-07-30T20:10:41.575Z,19.70
2023-07-30T20:13:12.764Z,19.73
2023-07-30T20:15:45.640Z,19.77
2023-07-30T20:18:16.194Z,19.80
2023-07-30T20:20:47.018Z,19.79
2023-07-30T20:23:17.848Z,19.78
2023-07-30T20:25:48.278Z,19.81
2023-07-30T20:28:19.030Z,19.84
2023-07-30T20:30:50.378Z,19.87
2023-07-30T20:33:21.054Z,19.92
2023-07-30T20:35:53.112Z,19.94
2023-07-30T20:38:24.156Z,19.94
2023-07-30T20:41:06.466Z,19.95
2023-07-30T20:43:50.881Z,19.95
2023-07-30T20:46:25.783Z,19.96
2023-07-30T20:48:56.636Z,19.88
2023-07-30T20:51:27.345Z,19.80
2023-07-30T20:53:59.830Z,19.73
2023-07-30T20:56:46.297Z,19.67
2023-07-30T20:59:26.658Z,19.60
2023-07-30T21:01:57.716Z,19.48
2023-07-30T21:07:20.880Z,19.23
2023-07-30T21:09:56.283Z,19.17
2023-07-30T21:12:34.985Z,19.11
2023-07-30T21:15:12.111Z,19.10
2023-07-30T21:17:49.648Z,19.08
2023-07-30T21:20:24.244Z,19.06
2023-07-30T21:23:01.055Z,19.05
2023-07-30T21:25:35.630Z,19.05
2023-07-30T21:28:18.949Z,19.05
2023-07-30T21:31:19.062Z,19.07
2023-07-30T21:33:56.783Z,19.10
2023-07-30T21:36:47.004Z,19.14
2023-07-30T21:39:26.609Z,19.17
2023-07-30T21:42:17.943Z,19.17
2023-07-30T21:44:52.946Z,19.13
2023-07-30T21:47:35.171Z,19.07
2023-07-30T21:50:09.878Z,19.10
2023-07-30T21:52:42.665Z,19.11
2023-07-30T21:55:31.679Z,19.16
2023-07-30T21:58:02.307Z,19.23
2023-07-30T22:00:34.141Z,19.27
2023-07-30T22:03:04.754Z,19.28
2023-07-30T22:05:35.716Z,19.26
2023-07-30T22:08:06.837Z,19.24
2023-07-30T22:10:43.124Z,19.20
2023-07-30T22:13:20.552Z,19.18
2023-07-30T22:15:52.431Z,19.11
2023-07-30T22:18:23.301Z,19.00
2023-07-30T22:20:58.801Z,18.89
2023-07-30T22:23:33.296Z,18.82
2023-07-30T22:26:06.880Z,18.79
2023-07-30T22:28:39.730Z,18.74
2023-07-30T22:31:11.828Z,18.62
2023-07-30T22:33:42.384Z,18.52
2023-07-30T22:36:13.084Z,18.48
2023-07-30T22:38:50.853Z,18.42
2023-07-30T22:41:28.111Z,18.36
2023-07-30T22:44:00.307Z,18.34
2023-07-30T22:46:36.423Z,18.31
2023-07-30T22:49:08.213Z,18.29
2023-07-30T22:51:41.734Z,18.30
2023-07-30T22:54:12.545Z,18.32
2023-07-30T22:56:43.303Z,18.34
2023-07-30T22:59:14.147Z,18.34
2023-07-30T23:01:45.870Z,18.32
2023-07-30T23:04:16.596Z,18.36
2023-07-30T23:06:47.529Z,18.38
2023-07-30T23:09:17.945Z,18.38
2023-07-30T23:11:49.763Z,18.34
2023-07-30T23:14:20.737Z,18.33
2023-07-30T23:16:51.803Z,18.35
2023-07-30T23:19:25.447Z,18.35
2023-07-30T23:21:56.204Z,18.34
2023-07-30T23:24:26.810Z,18.33
2023-07-30T23:26:58.659Z,18.31
2023-07-30T23:29:46.751Z,18.30
2023-07-30T23:32:17.977Z,18.25
2023-07-30T23:34:48.808Z,18.19
2023-07-30T23:37:19.884Z,18.14
2023-07-30T23:39:54.565Z,18.05
2023-07-30T23:42:35.137Z,17.97
2023-07-30T23:45:06.616Z,17.93
2023-07-30T23:47:38.360Z,17.86
2023-07-30T23:50:09.818Z,17.79
2023-07-30T23:52:41.456Z,17.74
2023-07-30T23:55:14.881Z,17.70
2023-07-30T23:58:00.063Z,17.63
